createdAt,value
2023-01-02T00:00:00.818Z,0.225
2023-01-02T00:01:00.712Z,0.225
2023-01-02T00:02:00.700Z,0.225
2023-01-02T00:03:00.700Z,0.225
2023-01-02T00:04:00.692Z,0.225
2023-01-02T00:05:00.622Z,0.225
2023-01-02T00:06:00.796Z,0.225
2023-01-02T00:07:00.742Z,0.225
2023-01-02T00:08:00.666Z,0.225
2023-01-02T00:09:00.739Z,0.225
2023-01-02T00:10:00.862Z,0.225
2023-01-02T00:11:00.685Z,0.225
2023-01-02T00:12:00.870Z,0.225
2023-01-02T00:13:00.698Z,0.225
2023-01-02T00:14:00.649Z,0.225
2023-01-02T00:15:00.620Z,0.225
2023-01-02T00:16:00.707Z,0.225
2023-01-02T00:17:00.992Z,0.225
2023-01-02T00:18:00.943Z,0.225
2023-01-02T00:19:00.702Z,0.225
2023-01-02T00:20:00.719Z,0.225
2023-01-02T00:21:00.639Z,0.225
2023-01-02T00:22:00.598Z,0.225
2023-01-02T00:23:00.667Z,0.225
2023-01-02T00:24:00.896Z,0.225
2023-01-02T00:25:00.628Z,0.225
2023-01-02T00:26:00.633Z,0.180
2023-01-02T00:27:00.641Z,0.180
2023-01-02T00:28:00.605Z,0.180
2023-01-02T00:29:00.638Z,0.180
2023-01-02T00:30:00.687Z,0.180
2023-01-02T00:31:00.675Z,0.180
2023-01-02T00:32:00.733Z,0.180
2023-01-02T00:33:00.649Z,0.180
2023-01-02T00:34:00.606Z,0.180
2023-01-02T00:35:00.644Z,0.180
2023-01-02T00:36:00.732Z,0.225
2023-01-02T00:37:00.615Z,0.180
2023-01-02T00:38:00.629Z,0.180
2023-01-02T00:39:00.633Z,0.180
2023-01-02T00:40:00.625Z,0.225
2023-01-02T00:41:00.609Z,0.180
2023-01-02T00:42:00.732Z,0.180
2023-01-02T00:43:00.693Z,0.180
2023-01-02T00:44:00.676Z,0.180
2023-01-02T00:45:00.608Z,0.180
2023-01-02T00:46:03.607Z,0.180
2023-01-02T00:47:00.877Z,0.180
2023-01-02T00:48:00.879Z,0.180
2023-01-02T00:49:00.711Z,0.180
2023-01-02T00:50:00.655Z,0.180
2023-01-02T00:51:00.641Z,0.180
2023-01-02T00:52:00.779Z,0.225
2023-01-02T00:53:00.666Z,0.225
2023-01-02T00:54:00.861Z,0.225
2023-01-02T00:55:00.683Z,0.225
2023-01-02T00:56:00.661Z,0.180
2023-01-02T00:57:00.595Z,0.180
2023-01-02T00:58:00.612Z,0.180
2023-01-02T00:59:00.615Z,0.180
2023-01-02T01:00:00.792Z,0.180
2023-01-02T01:01:00.637Z,0.180
2023-01-02T01:02:01.065Z,0.180
2023-01-02T01:03:00.733Z,0.180
2023-01-02T01:04:00.632Z,0.180
2023-01-02T01:05:00.638Z,0.180
2023-01-02T01:06:00.705Z,0.180
2023-01-02T01:07:00.631Z,0.180
2023-01-02T01:08:00.626Z,0.180
2023-01-02T01:09:00.662Z,0.180
2023-01-02T01:10:00.616Z,0.180
2023-01-02T01:11:00.570Z,0.180
2023-01-02T01:12:04.687Z,0.180
2023-01-02T01:13:00.607Z,0.180
2023-01-02T01:14:00.602Z,0.180
2023-01-02T01:15:00.578Z,0.180
2023-01-02T01:16:00.693Z,0.180
2023-01-02T01:17:00.831Z,0.180
2023-01-02T01:18:00.734Z,0.180
2023-01-02T01:19:00.626Z,0.180
2023-01-02T01:20:00.587Z,0.180
2023-01-02T01:21:00.606Z,0.180
2023-01-02T01:22:00.654Z,0.180
2023-01-02T01:23:00.633Z,0.180
2023-01-02T01:24:00.835Z,0.180
2023-01-02T01:25:00.654Z,0.180
2023-01-02T01:26:00.604Z,0.180
2023-01-02T01:27:00.608Z,0.180
2023-01-02T01:28:00.649Z,0.180
2023-01-02T01:29:00.655Z,0.180
2023-01-02T01:30:00.754Z,0.180
2023-01-02T01:31:00.683Z,0.180
2023-01-02T01:32:00.835Z,0.180
2023-01-02T01:33:00.686Z,0.180
2023-01-02T01:34:00.699Z,0.180
2023-01-02T01:35:00.608Z,0.180
2023-01-02T01:36:00.683Z,0.180
2023-01-02T01:37:00.623Z,0.180
2023-01-02T01:38:00.606Z,0.180
2023-01-02T01:39:00.574Z,0.180
2023-01-02T01:40:00.625Z,0.180
2023-01-02T01:41:00.631Z,0.180
2023-01-02T01:42:00.736Z,0.180
2023-01-02T01:43:01.015Z,0.180
2023-01-02T01:44:00.590Z,0.180
2023-01-02T01:45:00.606Z,0.180
2023-01-02T01:46:00.645Z,0.180
2023-01-02T01:47:00.728Z,0.180
2023-01-02T01:48:00.698Z,0.180
2023-01-02T01:49:00.621Z,0.180
2023-01-02T01:50:05.007Z,0.180
2023-01-02T01:51:00.603Z,0.180
2023-01-02T01:52:00.632Z,0.180
2023-01-02T01:53:00.651Z,0.180
2023-01-02T01:54:00.794Z,0.180
2023-01-02T01:55:00.598Z,0.180
2023-01-02T01:56:00.640Z,0.180
2023-01-02T01:57:00.661Z,0.180
2023-01-02T01:58:00.633Z,0.180
2023-01-02T01:59:00.598Z,0.180
2023-01-02T02:00:00.797Z,0.180
2023-01-02T02:01:00.674Z,0.180
2023-01-02T02:02:01.024Z,0.180
2023-01-02T02:03:00.851Z,0.180
2023-01-02T02:04:00.597Z,0.180
2023-01-02T02:05:00.678Z,0.180
2023-01-02T02:06:00.755Z,0.180
2023-01-02T02:07:00.637Z,0.180
2023-01-02T02:08:00.592Z,0.180
2023-01-02T02:09:00.569Z,0.180
2023-01-02T02:10:00.609Z,0.180
2023-01-02T02:11:00.571Z,0.180
2023-01-02T02:12:00.725Z,0.180
2023-01-02T02:13:00.568Z,0.180
2023-01-02T02:14:00.599Z,0.180
2023-01-02T02:15:00.604Z,0.180
2023-01-02T02:16:00.570Z,0.180
2023-01-02T02:17:00.611Z,0.180
2023-01-02T02:18:00.819Z,0.180
2023-01-02T02:19:00.604Z,0.180
2023-01-02T02:20:00.628Z,0.180
2023-01-02T02:21:00.639Z,0.180
2023-01-02T02:22:00.570Z,0.180
2023-01-02T02:23:00.569Z,0.180
2023-01-02T02:24:00.747Z,0.180
2023-01-02T02:25:00.616Z,0.180
2023-01-02T02:26:00.619Z,0.180
2023-01-02T02:27:00.594Z,0.180
2023-01-02T02:28:00.624Z,0.180
2023-01-02T02:29:00.592Z,0.180
2023-01-02T02:30:00.806Z,0.180
2023-01-02T02:31:00.595Z,0.180
2023-01-02T02:32:00.655Z,0.180
2023-01-02T02:33:00.794Z,0.180
2023-01-02T02:34:00.752Z,0.180
2023-01-02T02:35:00.575Z,0.180
2023-01-02T02:36:00.837Z,0.180
2023-01-02T02:37:00.600Z,0.180
2023-01-02T02:38:00.591Z,0.180
2023-01-02T02:39:00.588Z,0.180
2023-01-02T02:40:00.666Z,0.180
2023-01-02T02:41:00.591Z,0.180
2023-01-02T02:42:00.753Z,0.180
2023-01-02T02:43:00.573Z,0.180
2023-01-02T02:44:00.629Z,0.180
2023-01-02T02:45:00.650Z,0.180
2023-01-02T02:46:00.705Z,0.180
2023-01-02T02:47:00.602Z,0.180
2023-01-02T02:48:00.754Z,0.180
2023-01-02T02:49:00.735Z,0.180
2023-01-02T02:50:00.642Z,0.180
2023-01-02T02:51:00.627Z,0.180
2023-01-02T02:52:00.715Z,0.180
2023-01-02T02:53:00.601Z,0.180
2023-01-02T02:54:00.793Z,0.180
2023-01-02T02:55:00.628Z,0.180
2023-01-02T02:56:00.639Z,0.180
2023-01-02T02:57:00.673Z,0.180
2023-01-02T02:58:00.627Z,0.180
2023-01-02T02:59:00.612Z,0.180
2023-01-02T03:00:00.921Z,0.180
2023-01-02T03:01:00.701Z,0.180
2023-01-02T03:02:00.882Z,0.180
2023-01-02T03:03:00.700Z,0.180
2023-01-02T03:04:00.823Z,0.180
2023-01-02T03:05:00.636Z,0.180
2023-01-02T03:06:00.691Z,0.180
2023-01-02T03:07:00.575Z,0.180
2023-01-02T03:08:00.636Z,0.180
2023-01-02T03:09:00.634Z,0.180
2023-01-02T03:10:00.596Z,0.180
2023-01-02T03:11:00.599Z,0.180
2023-01-02T03:12:00.728Z,0.180
2023-01-02T03:13:00.636Z,0.180
2023-01-02T03:14:00.599Z,0.180
2023-01-02T03:15:00.627Z,0.180
2023-01-02T03:16:00.581Z,0.180
2023-01-02T03:17:00.720Z,0.180
2023-01-02T03:18:00.761Z,0.180
2023-01-02T03:19:00.743Z,0.180
2023-01-02T03:20:00.603Z,0.180
2023-01-02T03:21:00.571Z,0.180
2023-01-02T03:22:00.642Z,0.180
2023-01-02T03:23:00.614Z,0.180
2023-01-02T03:24:00.839Z,0.180
2023-01-02T03:25:00.602Z,0.180
2023-01-02T03:26:00.621Z,0.180
2023-01-02T03:27:00.596Z,0.180
2023-01-02T03:28:00.619Z,0.225
2023-01-02T03:29:00.605Z,0.180
2023-01-02T03:30:00.738Z,0.225
2023-01-02T03:31:00.664Z,0.225
2023-01-02T03:32:00.569Z,0.225
2023-01-02T03:33:00.585Z,0.225
2023-01-02T03:34:00.692Z,0.225
2023-01-02T03:35:00.566Z,0.225
2023-01-02T03:36:00.753Z,0.225
2023-01-02T03:37:00.601Z,0.225
2023-01-02T03:38:00.678Z,0.225
2023-01-02T03:39:00.698Z,0.225
2023-01-02T03:40:00.644Z,0.270
2023-01-02T03:41:00.626Z,0.270
2023-01-02T03:42:00.678Z,0.270
2023-01-02T03:43:00.664Z,0.270
2023-01-02T03:44:00.681Z,0.270
2023-01-02T03:45:00.694Z,0.270
2023-01-02T03:46:00.629Z,0.315
2023-01-02T03:47:00.626Z,0.360
2023-01-02T03:48:00.732Z,0.405
2023-01-02T03:49:00.726Z,0.405
2023-01-02T03:50:00.565Z,0.270
2023-01-02T03:51:00.577Z,0.360
2023-01-02T03:52:00.595Z,0.405
2023-01-02T03:53:00.608Z,0.450
2023-01-02T03:54:00.825Z,0.585
2023-01-02T03:55:00.632Z,0.675
2023-01-02T03:56:00.614Z,0.900
2023-01-02T03:57:00.612Z,1.080
2023-01-02T03:58:00.623Z,1.305
2023-01-02T03:59:00.612Z,1.665
2023-01-02T04:00:00.716Z,2.025
2023-01-02T04:01:00.620Z,2.565
2023-01-02T04:02:00.665Z,3.060
2023-01-02T04:03:00.625Z,3.780
2023-01-02T04:04:00.740Z,4.680
2023-01-02T04:05:00.633Z,5.580
2023-01-02T04:06:00.763Z,6.750
2023-01-02T04:07:00.596Z,8.100
2023-01-02T04:08:00.628Z,9.630
2023-01-02T04:09:00.605Z,11.340
2023-01-02T04:10:00.593Z,13.410
2023-01-02T04:11:00.663Z,15.660
2023-01-02T04:12:00.818Z,18.270
2023-01-02T04:13:00.714Z,21.240
2023-01-02T04:14:00.645Z,24.300
2023-01-02T04:15:00.626Z,28.080
2023-01-02T04:16:00.657Z,32.040
2023-01-02T04:17:00.599Z,36.180
2023-01-02T04:18:00.812Z,40.680
2023-01-02T04:19:00.676Z,46.080
2023-01-02T04:20:00.604Z,51.120
2023-01-02T04:21:00.606Z,57.240
2023-01-02T04:22:00.568Z,63.000
2023-01-02T04:23:00.644Z,69.840
2023-01-02T04:24:00.817Z,76.680
2023-01-02T04:25:00.628Z,84.240
2023-01-02T04:26:00.598Z,91.440
2023-01-02T04:27:00.579Z,99.360
2023-01-02T04:28:00.593Z,108.000
2023-01-02T04:29:00.658Z,117.360
2023-01-02T04:30:00.765Z,127.440
2023-01-02T04:31:00.684Z,138.240
2023-01-02T04:32:00.567Z,149.040
2023-01-02T04:33:00.635Z,162.000
2023-01-02T04:34:00.836Z,174.240
2023-01-02T04:35:00.751Z,188.640
2023-01-02T04:36:00.773Z,204.480
2023-01-02T04:37:00.671Z,221.760
2023-01-02T04:38:00.660Z,246.240
2023-01-02T04:39:00.656Z,312.480
2023-01-02T04:40:00.633Z,403.200
2023-01-02T04:41:00.661Z,492.480
2023-01-02T04:42:00.771Z,561.600
2023-01-02T04:43:00.602Z,627.840
2023-01-02T04:44:00.667Z,694.080
2023-01-02T04:45:00.679Z,682.560
2023-01-02T04:46:00.685Z,567.360
2023-01-02T04:47:00.682Z,432.000
2023-01-02T04:48:00.783Z,429.120
2023-01-02T04:49:00.630Z,449.280
2023-01-02T04:50:00.755Z,469.440
2023-01-02T04:51:00.602Z,489.600
2023-01-02T04:52:00.606Z,509.760
2023-01-02T04:53:00.628Z,529.920
2023-01-02T04:54:00.808Z,552.960
2023-01-02T04:55:00.634Z,576.000
2023-01-02T04:56:00.633Z,599.040
2023-01-02T04:57:00.579Z,619.200
2023-01-02T04:58:00.583Z,639.360
2023-01-02T04:59:00.607Z,659.520
2023-01-02T05:00:00.763Z,682.560
2023-01-02T05:01:00.602Z,699.840
2023-01-02T05:02:00.744Z,720.000
2023-01-02T05:03:00.614Z,737.280
2023-01-02T05:04:00.671Z,760.320
2023-01-02T05:05:00.765Z,777.600
2023-01-02T05:06:00.718Z,800.640
2023-01-02T05:07:00.660Z,817.920
2023-01-02T05:08:00.696Z,840.960
2023-01-02T05:09:00.634Z,858.240
2023-01-02T05:10:00.608Z,881.280
2023-01-02T05:11:00.604Z,904.320
2023-01-02T05:12:00.701Z,915.840
2023-01-02T05:13:00.698Z,944.640
2023-01-02T05:14:06.981Z,967.680
2023-01-02T05:15:00.598Z,990.720
2023-01-02T05:16:00.637Z,1059.840
2023-01-02T05:17:00.610Z,1082.880
2023-01-02T05:18:00.699Z,1100.160
2023-01-02T05:19:00.575Z,1123.200
2023-01-02T05:20:00.690Z,1134.720
2023-01-02T05:21:00.632Z,1163.520
2023-01-02T05:22:00.607Z,1180.800
2023-01-02T05:23:00.598Z,1203.840
2023-01-02T05:24:00.772Z,1226.880
2023-01-02T05:25:00.649Z,1249.920
2023-01-02T05:26:00.616Z,1272.960
2023-01-02T05:27:00.611Z,1290.240
2023-01-02T05:28:00.600Z,1313.280
2023-01-02T05:29:00.678Z,1330.560
2023-01-02T05:30:00.709Z,1359.360
2023-01-02T05:31:00.722Z,1376.640
2023-01-02T05:32:00.669Z,1399.680
2023-01-02T05:33:00.647Z,1422.720
2023-01-02T05:34:00.644Z,1440.000
2023-01-02T05:35:00.745Z,1463.040
2023-01-02T05:36:00.734Z,1497.600
2023-01-02T05:37:00.641Z,2269.440
2023-01-02T05:38:00.710Z,4561.920
2023-01-02T05:39:00.681Z,7096.320
2023-01-02T05:40:00.676Z,9031.680
2023-01-02T05:41:00.706Z,9768.960
2023-01-02T05:42:00.865Z,9999.360
2023-01-02T05:43:00.628Z,10183.680
2023-01-02T05:44:00.602Z,10321.920
2023-01-02T05:45:00.621Z,10552.320
2023-01-02T05:46:00.571Z,10828.800
2023-01-02T05:47:00.575Z,10920.960
2023-01-02T05:48:00.845Z,11013.120
2023-01-02T05:49:00.630Z,11151.360
2023-01-02T05:50:01.028Z,11335.680
2023-01-02T05:51:00.619Z,11796.480
2023-01-02T05:52:00.613Z,12349.440
2023-01-02T05:53:00.631Z,12349.440
2023-01-02T05:54:00.682Z,12072.960
2023-01-02T05:55:00.631Z,11888.640
2023-01-02T05:56:00.570Z,11980.800
2023-01-02T05:57:00.606Z,12257.280
2023-01-02T05:58:00.605Z,12349.440
2023-01-02T05:59:00.574Z,12625.920
2023-01-02T06:00:00.735Z,12625.920
2023-01-02T06:01:00.633Z,12902.400
2023-01-02T06:02:00.660Z,13086.720
2023-01-02T06:03:00.754Z,13271.040
2023-01-02T06:04:00.762Z,13547.520
2023-01-02T06:05:00.760Z,13731.840
2023-01-02T06:06:00.761Z,13916.160
2023-01-02T06:07:00.652Z,14100.480
2023-01-02T06:08:00.628Z,14284.800
2023-01-02T06:09:00.627Z,14561.280
2023-01-02T06:10:00.604Z,14653.440
2023-01-02T06:11:00.631Z,14837.760
2023-01-02T06:12:00.726Z,14837.760
2023-01-02T06:13:00.712Z,15114.240
2023-01-02T06:14:00.579Z,15298.560
2023-01-02T06:15:00.607Z,15482.880
2023-01-02T06:16:00.696Z,15482.880
2023-01-02T06:17:00.652Z,15482.880
2023-01-02T06:18:00.676Z,15667.200
2023-01-02T06:19:00.608Z,15851.520
2023-01-02T06:20:00.818Z,15943.680
2023-01-02T06:21:00.703Z,11566.080
2023-01-02T06:22:00.595Z,4976.640
2023-01-02T06:23:00.597Z,2073.600
2023-01-02T06:24:00.796Z,2073.600
2023-01-02T06:25:00.681Z,2050.560
2023-01-02T06:26:00.570Z,2050.560
2023-01-02T06:27:00.619Z,2039.040
2023-01-02T06:28:00.600Z,2050.560
2023-01-02T06:29:00.599Z,2062.080
2023-01-02T06:30:00.751Z,2050.560
2023-01-02T06:31:00.598Z,2062.080
2023-01-02T06:32:00.675Z,2073.600
2023-01-02T06:33:00.578Z,2073.600
2023-01-02T06:34:00.573Z,2073.600
2023-01-02T06:35:00.611Z,2073.600
2023-01-02T06:36:00.760Z,2073.600
2023-01-02T06:37:04.544Z,2085.120
2023-01-02T06:38:00.615Z,2096.640
2023-01-02T06:39:00.630Z,2108.160
2023-01-02T06:40:00.572Z,2096.640
2023-01-02T06:41:00.602Z,2108.160
2023-01-02T06:42:00.730Z,2119.680
2023-01-02T06:43:00.660Z,2131.200
2023-01-02T06:44:00.628Z,2142.720
2023-01-02T06:45:00.703Z,2154.240
2023-01-02T06:46:00.663Z,2177.280
2023-01-02T06:47:00.572Z,2188.800
2023-01-02T06:48:00.740Z,2200.320
2023-01-02T06:49:00.654Z,2211.840
2023-01-02T06:50:00.672Z,2223.360
2023-01-02T06:51:00.851Z,2223.360
2023-01-02T06:52:00.744Z,2223.360
2023-01-02T06:53:00.569Z,2234.880
2023-01-02T06:54:00.755Z,2234.880
2023-01-02T06:55:00.573Z,2246.400
2023-01-02T06:56:00.634Z,2280.960
2023-01-02T06:57:00.601Z,2269.440
2023-01-02T06:58:04.857Z,2304.000
2023-01-02T06:59:00.597Z,2280.960
2023-01-02T07:00:00.697Z,2292.480
2023-01-02T07:01:00.695Z,2304.000
2023-01-02T07:02:00.734Z,2304.000
2023-01-02T07:03:00.644Z,2315.520
2023-01-02T07:04:00.646Z,2292.480
2023-01-02T07:05:00.597Z,2315.520
2023-01-02T07:06:00.861Z,2338.560
2023-01-02T07:07:00.683Z,2315.520
2023-01-02T07:08:00.579Z,2338.560
2023-01-02T07:09:00.601Z,2327.040
2023-01-02T07:10:00.580Z,2315.520
2023-01-02T07:11:00.601Z,2338.560
2023-01-02T07:12:00.740Z,2315.520
2023-01-02T07:13:00.611Z,2373.120
2023-01-02T07:14:00.608Z,2373.120
2023-01-02T07:15:00.642Z,2384.640
2023-01-02T07:16:00.598Z,2396.160
2023-01-02T07:17:00.655Z,2396.160
2023-01-02T07:18:00.768Z,2407.680
2023-01-02T07:19:00.655Z,2442.240
2023-01-02T07:20:02.297Z,2430.720
2023-01-02T07:21:00.756Z,2453.760
2023-01-02T07:22:00.832Z,2465.280
2023-01-02T07:23:00.687Z,2488.320
2023-01-02T07:24:00.958Z,2488.320
2023-01-02T07:25:00.621Z,2488.320
2023-01-02T07:26:00.641Z,2499.840
2023-01-02T07:27:00.620Z,2499.840
2023-01-02T07:28:00.651Z,2511.360
2023-01-02T07:29:00.634Z,2534.400
2023-01-02T07:30:00.761Z,2534.400
2023-01-02T07:31:00.761Z,2545.920
2023-01-02T07:32:00.670Z,2534.400
2023-01-02T07:33:00.682Z,2545.920
2023-01-02T07:34:00.609Z,2534.400
2023-01-02T07:35:00.629Z,2545.920
2023-01-02T07:36:00.822Z,2545.920
2023-01-02T07:37:00.898Z,2545.920
2023-01-02T07:38:00.611Z,2545.920
2023-01-02T07:39:00.610Z,2568.960
2023-01-02T07:40:00.699Z,2545.920
2023-01-02T07:41:00.675Z,2557.440
2023-01-02T07:42:00.737Z,2557.440
2023-01-02T07:43:00.614Z,2557.440
2023-01-02T07:44:00.596Z,2557.440
2023-01-02T07:45:00.725Z,2568.960
2023-01-02T07:46:00.650Z,2580.480
2023-01-02T07:47:00.574Z,2603.520
2023-01-02T07:48:00.778Z,2626.560
2023-01-02T07:49:00.596Z,2626.560
2023-01-02T07:50:00.651Z,2649.600
2023-01-02T07:51:00.630Z,2649.600
2023-01-02T07:52:00.757Z,2626.560
2023-01-02T07:53:00.632Z,2638.080
2023-01-02T07:54:00.766Z,2626.560
2023-01-02T07:55:00.727Z,2626.560
2023-01-02T07:56:00.941Z,2661.120
2023-01-02T07:57:01.020Z,2661.120
2023-01-02T07:58:00.904Z,2684.160
2023-01-02T07:59:00.911Z,2672.640
2023-01-02T08:00:00.831Z,2707.200
2023-01-02T08:01:05.453Z,2718.720
2023-01-02T08:02:00.937Z,2707.200
2023-01-02T08:03:00.636Z,2718.720
2023-01-02T08:04:01.030Z,2695.680
2023-01-02T08:05:00.923Z,2672.640
2023-01-02T08:06:00.847Z,2707.200
2023-01-02T08:07:00.718Z,2730.240
2023-01-02T08:08:00.603Z,2741.760
2023-01-02T08:09:00.633Z,2764.800
2023-01-02T08:10:00.692Z,2764.800
2023-01-02T08:11:00.606Z,2753.280
2023-01-02T08:12:00.855Z,2799.360
2023-01-02T08:13:00.636Z,2810.880
2023-01-02T08:14:00.701Z,2845.440
2023-01-02T08:15:00.578Z,2868.480
2023-01-02T08:16:00.662Z,2903.040
2023-01-02T08:17:00.856Z,2972.160
2023-01-02T08:18:00.721Z,2972.160
2023-01-02T08:19:00.628Z,3018.240
2023-01-02T08:20:07.149Z,3041.280
2023-01-02T08:21:00.614Z,3064.320
2023-01-02T08:22:00.730Z,3064.320
2023-01-02T08:23:00.650Z,3064.320
2023-01-02T08:24:00.692Z,3110.400
2023-01-02T08:25:00.611Z,3156.480
2023-01-02T08:26:00.599Z,3202.560
2023-01-02T08:27:00.567Z,3248.640
2023-01-02T08:28:00.624Z,3271.680
2023-01-02T08:29:00.620Z,3363.840
2023-01-02T08:30:00.786Z,4147.200
2023-01-02T08:31:00.731Z,14376.960
2023-01-02T08:32:00.621Z,24145.920
2023-01-02T08:33:00.595Z,24145.920
2023-01-02T08:34:00.635Z,24330.240
2023-01-02T08:35:00.644Z,25067.520
2023-01-02T08:36:00.699Z,24514.561
2023-01-02T08:37:00.656Z,24145.920
2023-01-02T08:38:00.618Z,24330.240
2023-01-02T08:39:00.698Z,24514.561
2023-01-02T08:40:00.577Z,24514.561
2023-01-02T08:41:00.609Z,24514.561
2023-01-02T08:42:00.769Z,24330.240
2023-01-02T08:43:00.647Z,24698.881
2023-01-02T08:44:00.568Z,25067.520
2023-01-02T08:45:00.645Z,25251.840
2023-01-02T08:46:00.676Z,24883.199
2023-01-02T08:47:00.570Z,24883.199
2023-01-02T08:48:00.880Z,25251.840
2023-01-02T08:49:00.612Z,24698.881
2023-01-02T08:50:00.579Z,24698.881
2023-01-02T08:51:00.601Z,25067.520
2023-01-02T08:52:00.804Z,25436.160
2023-01-02T08:53:00.679Z,25620.480
2023-01-02T08:54:00.686Z,25067.520
2023-01-02T08:55:00.602Z,25251.840
2023-01-02T08:56:00.600Z,25251.840
2023-01-02T08:57:00.625Z,24883.199
2023-01-02T08:58:00.614Z,24883.199
2023-01-02T08:59:00.740Z,25251.840
2023-01-02T09:00:00.873Z,25436.160
2023-01-02T09:01:00.618Z,25067.520
2023-01-02T09:02:00.742Z,24883.199
2023-01-02T09:03:00.840Z,25067.520
2023-01-02T09:04:03.700Z,25436.160
2023-01-02T09:05:00.613Z,25251.840
2023-01-02T09:06:00.742Z,25251.840
2023-01-02T09:07:00.632Z,25251.840
2023-01-02T09:08:00.929Z,25436.160
2023-01-02T09:09:03.206Z,25620.480
2023-01-02T09:10:00.765Z,25804.801
2023-01-02T09:11:00.569Z,25436.160
2023-01-02T09:12:00.839Z,25436.160
2023-01-02T09:13:00.632Z,25804.801
2023-01-02T09:14:00.663Z,25804.801
2023-01-02T09:15:00.602Z,25989.119
2023-01-02T09:16:00.646Z,25804.801
2023-01-02T09:17:00.644Z,25804.801
2023-01-02T09:18:00.824Z,25804.801
2023-01-02T09:19:00.608Z,25620.480
2023-01-02T09:20:00.607Z,25436.160
2023-01-02T09:21:00.574Z,25620.480
2023-01-02T09:22:00.662Z,25436.160
2023-01-02T09:23:00.747Z,25620.480
2023-01-02T09:24:00.694Z,1946.880
2023-01-02T09:25:00.649Z,2073.600
2023-01-02T09:26:00.612Z,2119.680
2023-01-02T09:27:00.652Z,22118.400
2023-01-02T09:28:00.639Z,1958.400
2023-01-02T09:29:00.603Z,2027.520
2023-01-02T09:30:00.742Z,2062.080
2023-01-02T09:31:00.671Z,25620.480
2023-01-02T09:32:00.642Z,25620.480
2023-01-02T09:33:00.663Z,1912.320
2023-01-02T09:34:00.653Z,2211.840
2023-01-02T09:35:00.603Z,1935.360
2023-01-02T09:36:00.779Z,10598.400
2023-01-02T09:37:00.639Z,1912.320
2023-01-02T09:38:01.030Z,1900.800
2023-01-02T09:39:00.568Z,1992.960
2023-01-02T09:40:00.625Z,1935.360
2023-01-02T09:41:00.886Z,2257.920
2023-01-02T09:42:00.780Z,2108.160
2023-01-02T09:43:00.787Z,2085.120
2023-01-02T09:44:00.694Z,1866.240
2023-01-02T09:45:06.433Z,25620.480
2023-01-02T09:46:00.704Z,1866.240
2023-01-02T09:47:00.702Z,24514.561
2023-01-02T09:48:01.003Z,2257.920
2023-01-02T09:49:00.865Z,1854.720
2023-01-02T09:50:00.734Z,1900.800
2023-01-02T09:51:07.160Z,1843.200
2023-01-02T09:52:00.636Z,1831.680
2023-01-02T09:53:00.983Z,1981.440
2023-01-02T09:54:00.972Z,1889.280
2023-01-02T09:55:00.851Z,1866.240
2023-01-02T09:56:00.838Z,2165.760
2023-01-02T09:57:00.861Z,1935.360
2023-01-02T09:58:00.968Z,1889.280
2023-01-02T09:59:00.881Z,1923.840
2023-01-02T10:00:00.788Z,1923.840
2023-01-02T10:01:00.934Z,2200.320
2023-01-02T10:02:00.918Z,1900.800
2023-01-02T10:03:05.802Z,2257.920
2023-01-02T10:04:00.631Z,1843.200
2023-01-02T10:05:00.676Z,44605.441
2023-01-02T10:06:00.798Z,8939.520
2023-01-02T10:07:00.625Z,2211.840
2023-01-02T10:08:00.777Z,58982.398
2023-01-02T10:09:00.768Z,2062.080
2023-01-02T10:10:00.715Z,1992.960
2023-01-02T10:11:00.619Z,1992.960
2023-01-02T10:12:00.759Z,1854.720
2023-01-02T10:13:00.665Z,66723.844
2023-01-02T10:14:20.538Z,67829.758
2023-01-02T10:15:00.581Z,1935.360
2023-01-02T10:16:00.700Z,68198.398
2023-01-02T10:17:00.628Z,1866.240
2023-01-02T10:18:00.838Z,1958.400
2023-01-02T10:19:00.750Z,1969.920
2023-01-02T10:20:00.678Z,1889.280
2023-01-02T10:21:00.612Z,2361.600
2023-01-02T10:22:00.807Z,2027.520
2023-01-02T10:23:00.864Z,64143.359
2023-01-02T10:24:00.865Z,59351.039
2023-01-02T10:25:00.792Z,2096.640
2023-01-02T10:26:00.647Z,6082.560
2023-01-02T10:27:00.657Z,1900.800
2023-01-02T10:28:00.667Z,30044.160
2023-01-02T10:29:00.725Z,2085.120
2023-01-02T10:30:00.870Z,1900.800
2023-01-02T10:31:05.529Z,1981.440
2023-01-02T10:32:00.699Z,2073.600
2023-01-02T10:33:00.655Z,3939.840
2023-01-02T10:34:00.688Z,1923.840
2023-01-02T10:35:00.899Z,23224.320
2023-01-02T10:36:01.218Z,1935.360
2023-01-02T10:37:04.486Z,23961.600
2023-01-02T10:38:00.872Z,1992.960
2023-01-02T10:39:00.819Z,2027.520
2023-01-02T10:40:01.058Z,2108.160
2023-01-02T10:41:00.955Z,23132.160
2023-01-02T10:42:00.753Z,2016.000
2023-01-02T10:43:00.687Z,2315.520
2023-01-02T10:44:00.665Z,23592.961
2023-01-02T10:45:00.751Z,21196.801
2023-01-02T10:46:00.660Z,6451.200
2023-01-02T10:47:00.736Z,23408.641
2023-01-02T10:48:00.750Z,23408.641
2023-01-02T10:49:00.617Z,22763.520
2023-01-02T10:50:00.683Z,1946.880
2023-01-02T10:51:00.600Z,1969.920
2023-01-02T10:52:00.634Z,1981.440
2023-01-02T10:53:00.635Z,2177.280
2023-01-02T10:54:00.792Z,1877.760
2023-01-02T10:55:01.003Z,2062.080
2023-01-02T10:56:00.842Z,1958.400
2023-01-02T10:57:00.610Z,26357.760
2023-01-02T10:58:00.582Z,1992.960
2023-01-02T10:59:00.643Z,1912.320
2023-01-02T11:00:00.855Z,2004.480
2023-01-02T11:01:00.948Z,4124.160
2023-01-02T11:02:00.874Z,2027.520
2023-01-02T11:03:00.760Z,2211.840
2023-01-02T11:04:00.749Z,1900.800
2023-01-02T11:05:00.614Z,1843.200
2023-01-02T11:06:23.174Z,1946.880
2023-01-02T11:07:00.631Z,2108.160
2023-01-02T11:08:00.661Z,24698.881
2023-01-02T11:09:00.797Z,3847.680
2023-01-02T11:10:00.609Z,1762.560
2023-01-02T11:11:00.725Z,1923.840
2023-01-02T11:12:00.853Z,6497.280
2023-01-02T11:13:00.605Z,1969.920
2023-01-02T11:14:00.623Z,1658.880
2023-01-02T11:15:00.679Z,4193.280
2023-01-02T11:16:00.941Z,2073.600
2023-01-02T11:17:00.627Z,1958.400
2023-01-02T11:18:00.810Z,19814.400
2023-01-02T11:19:00.628Z,2730.240
2023-01-02T11:20:00.646Z,4976.640
2023-01-02T11:21:00.577Z,1981.440
2023-01-02T11:22:00.605Z,1912.320
2023-01-02T11:23:00.627Z,1808.640
2023-01-02T11:24:00.902Z,1877.760
2023-01-02T11:25:01.381Z,2188.800
2023-01-02T11:26:00.737Z,1601.280
2023-01-02T11:27:00.694Z,1751.040
2023-01-02T11:28:00.647Z,1532.160
2023-01-02T11:29:00.584Z,1578.240
2023-01-02T11:30:00.841Z,1739.520
2023-01-02T11:31:00.624Z,1474.560
2023-01-02T11:32:00.959Z,2626.560
2023-01-02T11:33:00.624Z,1693.440
2023-01-02T11:34:00.576Z,1612.800
2023-01-02T11:35:00.656Z,2580.480
2023-01-02T11:36:00.752Z,1486.080
2023-01-02T11:37:00.628Z,1399.680
2023-01-02T11:38:00.644Z,2419.200
2023-01-02T11:39:00.633Z,1520.640
2023-01-02T11:40:00.588Z,1399.680
2023-01-02T11:41:00.628Z,1411.200
2023-01-02T11:42:00.775Z,1854.720
2023-01-02T11:43:00.775Z,2073.600
2023-01-02T11:44:00.628Z,1393.920
2023-01-02T11:45:00.687Z,1543.680
2023-01-02T11:46:00.642Z,1336.320
2023-01-02T11:47:00.614Z,1353.600
2023-01-02T11:48:00.812Z,1578.240
2023-01-02T11:49:00.668Z,1342.080
2023-01-02T11:50:00.683Z,1278.720
2023-01-02T11:51:00.632Z,2338.560
2023-01-02T11:52:00.642Z,1244.160
2023-01-02T11:53:00.657Z,1272.960
2023-01-02T11:54:00.764Z,1221.120
2023-01-02T11:55:00.649Z,1532.160
2023-01-02T11:56:00.570Z,1244.160
2023-01-02T11:57:00.768Z,1670.400
2023-01-02T11:58:00.590Z,1290.240
2023-01-02T11:59:00.569Z,1221.120
2023-01-02T12:00:00.936Z,1324.800
2023-01-02T12:01:00.599Z,1497.600
2023-01-02T12:02:00.785Z,1186.560
2023-01-02T12:03:00.958Z,1226.880
2023-01-02T12:04:00.711Z,1215.360
2023-01-02T12:05:00.608Z,1192.320